createdAt,value
2023-01-20T00:01:47.886Z,10.55
2023-01-20T00:04:15.618Z,10.68
2023-01-20T00:06:42.910Z,10.50
2023-01-20T00:09:14.391Z,10.58
2023-01-20T00:11:41.643Z,10.80
2023-01-20T00:14:09.445Z,10.85
2023-01-20T00:16:36.580Z,10.67
2023-01-20T00:19:03.890Z,10.87
2023-01-20T00:21:31.151Z,10.92
2023-01-20T00:23:58.374Z,11.10
2023-01-20T00:26:25.772Z,11.09
2023-01-20T00:28:56.265Z,11.08
2023-01-20T00:31:28.430Z,11.02
2023-01-20T00:33:57.673Z,11.19
2023-01-20T00:36:25.488Z,11.00
2023-01-20T00:38:52.687Z,10.85
2023-01-20T00:41:19.927Z,10.96
2023-01-20T00:43:47.315Z,10.98
2023-01-20T00:46:14.494Z,11.25
2023-01-20T00:48:41.749Z,11.25
2023-01-20T00:51:09.465Z,10.98
2023-01-20T00:53:36.832Z,11.05
2023-01-20T00:56:04.461Z,10.95
2023-01-20T00:58:31.674Z,10.95
2023-01-20T01:00:59.208Z,10.99
2023-01-20T01:03:28.304Z,11.04
2023-01-20T01:05:55.634Z,10.80
2023-01-20T01:08:22.791Z,10.84
2023-01-20T01:10:49.972Z,10.97
2023-01-20T01:13:16.995Z,10.76
2023-01-20T01:15:50.309Z,10.88
2023-01-20T01:18:17.767Z,11.10
2023-01-20T01:20:45.323Z,10.84
2023-01-20T01:23:12.927Z,10.95
2023-01-20T01:25:40.135Z,10.95
2023-01-20T01:28:07.401Z,10.97
2023-01-20T01:30:34.699Z,10.96
2023-01-20T01:33:01.995Z,10.86
2023-01-20T01:35:29.269Z,10.83
2023-01-20T01:37:56.498Z,10.93
2023-01-20T01:40:23.652Z,10.98
2023-01-20T01:42:50.872Z,10.93
2023-01-20T01:45:23.015Z,10.74
2023-01-20T01:48:02.667Z,10.65
2023-01-20T01:50:40.154Z,10.82
2023-01-20T01:53:07.622Z,10.95
2023-01-20T01:55:36.905Z,10.86
2023-01-20T01:58:04.176Z,10.83
2023-01-20T02:00:31.395Z,10.92
2023-01-20T02:02:58.574Z,10.97
2023-01-20T02:05:26.132Z,11.00
2023-01-20T02:07:53.500Z,10.99
2023-01-20T02:10:20.679Z,10.92
2023-01-20T02:12:49.753Z,10.99
2023-01-20T02:15:18.373Z,10.88
2023-01-20T02:18:01.398Z,10.90
2023-01-20T02:20:54.876Z,10.76
2023-01-20T02:23:35.566Z,10.82
2023-01-20T02:26:24.830Z,10.94
2023-01-20T02:28:52.209Z,10.84
2023-01-20T02:31:25.826Z,10.69
2023-01-20T02:33:59.088Z,10.75
2023-01-20T02:36:51.784Z,10.69
2023-01-20T02:39:29.204Z,10.64
2023-01-20T02:42:08.962Z,10.53
2023-01-20T02:44:44.613Z,10.33
2023-01-20T02:47:13.373Z,10.16
2023-01-20T02:49:55.321Z,10.42
2023-01-20T02:52:31.553Z,10.45
2023-01-20T02:55:02.016Z,10.24
2023-01-20T02:57:32.246Z,10.19
2023-01-20T03:00:04.204Z,10.31
2023-01-20T03:02:31.518Z,10.02
2023-01-20T03:05:02.243Z,10.30
2023-01-20T03:07:29.902Z,9.94
2023-01-20T03:09:58.001Z,10.12
2023-01-20T03:12:29.647Z,9.81
2023-01-20T03:14:56.802Z,9.76
2023-01-20T03:17:23.989Z,9.78
2023-01-20T03:19:51.056Z,9.70
2023-01-20T03:22:18.211Z,9.76
2023-01-20T03:24:45.408Z,10.08
2023-01-20T03:27:12.632Z,10.11
2023-01-20T03:29:39.845Z,10.36
2023-01-20T03:32:08.702Z,10.37
2023-01-20T03:34:36.829Z,10.42
2023-01-20T03:37:04.109Z,10.70
2023-01-20T03:39:32.067Z,10.45
2023-01-20T03:42:11.210Z,10.46
2023-01-20T03:44:38.368Z,10.63
2023-01-20T03:47:28.674Z,10.45
2023-01-20T03:50:07.979Z,10.37
2023-01-20T03:52:47.629Z,10.50
2023-01-20T03:55:23.468Z,10.49
2023-01-20T03:58:12.379Z,10.64
2023-01-20T04:00:44.084Z,10.62
2023-01-20T04:03:31.242Z,10.52
2023-01-20T04:06:02.828Z,10.47
2023-01-20T04:08:32.223Z,10.46
2023-01-20T04:11:00.237Z,10.40
2023-01-20T04:13:29.481Z,10.26
2023-01-20T04:15:56.740Z,10.27
2023-01-20T04:18:23.956Z,10.21
2023-01-20T04:20:59.422Z,10.13
2023-01-20T04:23:40.188Z,9.99
2023-01-20T04:26:07.344Z,10.07
2023-01-20T04:28:34.354Z,10.00
2023-01-20T04:31:01.813Z,10.01
2023-01-20T04:33:29.004Z,9.94
2023-01-20T04:35:56.198Z,10.01
2023-01-20T04:38:23.406Z,9.97
2023-01-20T04:40:50.550Z,9.98
2023-01-20T04:43:19.228Z,10.09
2023-01-20T04:45:46.383Z,10.19
2023-01-20T04:48:13.643Z,10.44
2023-01-20T04:50:41.351Z,10.35
2023-01-20T04:53:13.984Z,10.51
2023-01-20T04:55:41.108Z,10.38
2023-01-20T04:58:10.164Z,10.47
2023-01-20T05:00:37.439Z,10.56
2023-01-20T05:03:06.526Z,10.39
2023-01-20T05:05:33.761Z,10.36
2023-01-20T05:08:01.072Z,10.29
2023-01-20T05:10:28.245Z,10.16
2023-01-20T05:12:55.467Z,10.20
2023-01-20T05:15:23.140Z,10.21
2023-01-20T05:17:50.305Z,10.24
2023-01-20T05:20:19.287Z,10.15
2023-01-20T05:22:47.930Z,10.01
2023-01-20T05:25:15.556Z,10.05
2023-01-20T05:27:43.117Z,10.02
2023-01-20T05:30:11.487Z,10.06
2023-01-20T05:32:38.761Z,10.14
2023-01-20T05:35:08.750Z,10.30
2023-01-20T05:37:35.976Z,10.29
2023-01-20T05:40:03.837Z,10.19
2023-01-20T05:42:33.073Z,10.12
2023-01-20T05:45:00.264Z,10.22
2023-01-20T05:47:27.446Z,10.30
2023-01-20T05:49:54.711Z,10.27
2023-01-20T05:52:21.968Z,10.29
2023-01-20T05:54:49.198Z,10.46
2023-01-20T05:57:18.565Z,10.53
2023-01-20T05:59:49.869Z,10.48
2023-01-20T06:02:18.959Z,10.56
2023-01-20T06:04:46.863Z,10.35
2023-01-20T06:07:14.722Z,10.36
2023-01-20T06:09:42.036Z,10.47
2023-01-20T06:12:09.318Z,10.73
2023-01-20T06:14:36.963Z,10.76
2023-01-20T06:17:04.170Z,10.68
2023-01-20T06:19:33.989Z,10.63
2023-01-20T06:22:01.166Z,10.64
2023-01-20T06:24:28.444Z,10.68
2023-01-20T06:26:55.717Z,10.85
2023-01-20T06:29:22.944Z,10.85
2023-01-20T06:31:50.276Z,11.06
2023-01-20T06:34:17.475Z,11.15
2023-01-20T06:36:44.733Z,11.13
2023-01-20T06:39:12.024Z,11.14
2023-01-20T06:41:39.251Z,11.24
2023-01-20T06:44:06.427Z,11.34
2023-01-20T06:46:33.679Z,11.45
2023-01-20T06:49:01.146Z,11.61
2023-01-20T06:51:29.616Z,11.70
2023-01-20T06:53:57.050Z,11.76
2023-01-20T06:56:24.413Z,11.79
2023-01-20T06:58:52.216Z,11.73
2023-01-20T07:01:25.200Z,11.74
2023-01-20T07:03:52.738Z,11.83
2023-01-20T07:06:25.926Z,11.91
2023-01-20T07:08:53.245Z,11.72
2023-01-20T07:11:20.492Z,11.66
2023-01-20T07:13:48.103Z,11.71
2023-01-20T07:16:16.783Z,11.78
2023-01-20T07:18:44.817Z,11.76
2023-01-20T07:21:12.309Z,11.87
2023-01-20T07:23:39.521Z,11.84
2023-01-20T07:26:08.496Z,11.97
2023-01-20T07:28:35.837Z,11.97
2023-01-20T07:31:07.763Z,12.17
2023-01-20T07:33:35.225Z,12.09
2023-01-20T07:36:02.657Z,12.03
2023-01-20T07:38:29.999Z,12.04
2023-01-20T07:40:58.857Z,12.19
2023-01-20T07:43:26.248Z,12.24
2023-01-20T07:45:57.630Z,12.28
2023-01-20T07:48:25.915Z,12.41
2023-01-20T07:51:05.826Z,12.45
2023-01-20T07:53:37.092Z,12.51
2023-01-20T07:56:06.060Z,12.64
2023-01-20T07:58:33.562Z,12.60
2023-01-20T08:01:18.004Z,12.62
2023-01-20T08:03:45.393Z,12.67
2023-01-20T08:06:14.231Z,12.72
2023-01-20T08:08:41.448Z,12.68
2023-01-20T08:11:09.334Z,12.72
2023-01-20T08:13:36.839Z,12.81
2023-01-20T08:16:06.669Z,12.77
2023-01-20T08:18:34.127Z,12.75
2023-01-20T08:21:02.178Z,12.70
2023-01-20T08:23:29.375Z,12.77
2023-01-20T08:26:02.172Z,12.86
2023-01-20T08:28:30.149Z,12.83
2023-01-20T08:31:24.032Z,12.90
2023-01-20T08:33:55.567Z,12.92
2023-01-20T08:36:25.013Z,12.93
2023-01-20T08:38:52.396Z,12.91
2023-01-20T08:41:25.184Z,13.03
2023-01-20T08:43:52.416Z,12.98
2023-01-20T08:46:19.826Z,12.95
2023-01-20T08:48:48.311Z,12.83
2023-01-20T08:51:18.616Z,13.02
2023-01-20T08:53:46.098Z,13.25
2023-01-20T08:56:13.485Z,13.71
2023-01-20T08:58:40.679Z,13.91
2023-01-20T09:01:10.950Z,14.10
2023-01-20T09:03:38.414Z,14.13
2023-01-20T09:06:06.837Z,14.20
2023-01-20T09:08:34.276Z,14.21
2023-01-20T09:11:05.722Z,14.26
2023-01-20T09:13:32.989Z,14.34
2023-01-20T09:16:00.317Z,14.35
2023-01-20T09:18:27.783Z,14.26
2023-01-20T09:20:57.844Z,14.32
2023-01-20T09:23:25.571Z,14.36
2023-01-20T09:25:52.959Z,14.33
2023-01-20T09:28:20.339Z,14.32
2023-01-20T09:30:47.889Z,14.47
2023-01-20T09:33:15.290Z,14.43
2023-01-20T09:35:42.522Z,14.47
2023-01-20T09:38:28.453Z,14.45
2023-01-20T09:41:20.940Z,14.46
2023-01-20T09:43:57.225Z,14.39
2023-01-20T09:46:41.346Z,14.29
2023-01-20T09:49:33.830Z,14.25
2023-01-20T09:52:32.659Z,14.57
2023-01-20T09:55:03.481Z,14.67
2023-01-20T09:57:33.697Z,14.66
2023-01-20T10:00:04.450Z,14.69
2023-01-20T10:02:35.526Z,14.74
2023-01-20T10:05:08.443Z,14.88
2023-01-20T10:07:35.691Z,14.75
2023-01-20T10:10:02.908Z,14.74
2023-01-20T10:12:42.963Z,14.71
2023-01-20T10:15:15.197Z,14.89
2023-01-20T10:17:48.441Z,14.85
2023-01-20T10:20:39.606Z,15.04
2023-01-20T10:23:15.855Z,14.94
2023-01-20T10:26:13.444Z,15.12
2023-01-20T10:29:02.992Z,15.13
2023-01-20T10:31:37.533Z,14.97
2023-01-20T10:34:22.990Z,14.91
2023-01-20T10:36:59.590Z,15.06
2023-01-20T10:39:31.717Z,15.26
2023-01-20T10:42:09.198Z,15.38
2023-01-20T10:44:36.523Z,15.41
2023-01-20T10:47:26.440Z,15.28
2023-01-20T10:50:06.738Z,15.18
2023-01-20T10:52:36.947Z,15.21
2023-01-20T10:55:10.349Z,15.26
2023-01-20T10:57:38.627Z,15.27
2023-01-20T11:00:08.409Z,15.36
2023-01-20T11:02:38.084Z,15.21
2023-01-20T11:05:20.540Z,15.08
2023-01-20T11:07:47.701Z,15.03
2023-01-20T11:10:25.933Z,15.18
2023-01-20T11:12:57.579Z,15.16
2023-01-20T11:15:31.182Z,15.05
2023-01-20T11:18:21.127Z,14.70
2023-01-20T11:20:50.917Z,14.61
2023-01-20T11:23:38.371Z,14.52
2023-01-20T11:26:26.905Z,14.46
2023-01-20T11:29:02.541Z,14.37
2023-01-20T11:31:56.782Z,14.36
2023-01-20T11:34:23.967Z,14.24
2023-01-20T11:36:52.112Z,14.31
2023-01-20T11:39:31.029Z,14.21
2023-01-20T11:42:10.648Z,14.32
2023-01-20T11:44:47.357Z,14.56
2023-01-20T11:47:31.515Z,14.52
2023-01-20T11:50:05.093Z,14.45
2023-01-20T11:52:33.544Z,14.43
2023-01-20T11:55:14.362Z,14.41
2023-01-20T11:57:51.683Z,14.50
2023-01-20T12:00:19.008Z,14.56
2023-01-20T12:03:00.161Z,14.69
2023-01-20T12:05:44.147Z,14.62
2023-01-20T12:08:13.615Z,14.60
2023-01-20T12:10:40.927Z,14.62
2023-01-20T12:13:17.268Z,14.58
2023-01-20T12:15:46.314Z,14.46
2023-01-20T12:18:24.423Z,14.62
2023-01-20T12:21:18.362Z,14.37
2023-01-20T12:24:03.764Z,14.09
2023-01-20T12:26:32.538Z,14.23
2023-01-20T12:29:05.839Z,14.38
2023-01-20T12:31:33.279Z,14.41
2023-01-20T12:34:05.689Z,14.44
2023-01-20T12:36:38.972Z,14.30
2023-01-20T12:39:15.445Z,14.16
2023-01-20T12:42:03.055Z,13.99
2023-01-20T12:44:38.923Z,13.82
2023-01-20T12:47:14.696Z,13.82
2023-01-20T12:50:11.210Z,13.97
2023-01-20T12:53:03.377Z,13.63
2023-01-20T12:55:30.874Z,13.75
2023-01-20T12:58:20.542Z,13.89
2023-01-20T13:00:54.327Z,13.76
2023-01-20T13:03:51.156Z,13.58
2023-01-20T13:06:19.947Z,13.48
2023-01-20T13:09:16.411Z,13.42
2023-01-20T13:12:09.994Z,13.25
2023-01-20T13:14:45.711Z,13.31
2023-01-20T13:17:42.654Z,13.13
2023-01-20T13:20:23.639Z,13.27
2023-01-20T13:22:50.973Z,13.33
2023-01-20T13:25:19.303Z,13.30
2023-01-20T13:27:47.473Z,13.08
2023-01-20T13:30:37.585Z,12.93
2023-01-20T13:33:13.925Z,12.96
2023-01-20T13:35:43.102Z,12.99
2023-01-20T13:38:30.987Z,12.80
2023-01-20T13:41:03.532Z,12.72
2023-01-20T13:43:46.296Z,12.72
2023-01-20T13:46:15.350Z,12.85
2023-01-20T13:49:12.519Z,12.89
2023-01-20T13:51:39.707Z,12.92
2023-01-20T13:54:29.071Z,12.62
2023-01-20T13:57:23.973Z,12.45
2023-01-20T13:59:51.560Z,12.37
2023-01-20T14:02:23.809Z,12.36
2023-01-20T14:04:51.074Z,12.20
2023-01-20T14:07:25.723Z,12.05
2023-01-20T14:09:54.622Z,11.75
2023-01-20T14:12:22.092Z,11.70
2023-01-20T14:14:50.551Z,11.52
2023-01-20T14:17:19.263Z,11.38
2023-01-20T14:19:48.258Z,11.32
2023-01-20T14:22:30.320Z,11.25
2023-01-20T14:24:59.181Z,11.15
2023-01-20T14:27:42.190Z,11.13
2023-01-20T14:30:28.484Z,11.08
2023-01-20T14:32:55.797Z,10.99
2023-01-20T14:35:27.982Z,10.95
2023-01-20T14:37:55.228Z,10.91
2023-01-20T14:40:26.567Z,10.67
2023-01-20T14:43:16.057Z,10.50
2023-01-20T14:45:45.505Z,10.27
2023-01-20T14:48:24.686Z,10.23
2023-01-20T14:51:02.884Z,10.00
2023-01-20T14:53:30.130Z,9.96
2023-01-20T14:56:01.336Z,10.11
2023-01-20T14:58:30.801Z,9.95
2023-01-20T15:01:01.040Z,9.97
2023-01-20T15:03:28.715Z,9.87
2023-01-20T15:05:58.649Z,9.86
2023-01-20T15:08:35.685Z,9.71
2023-01-20T15:11:31.612Z,9.64
2023-01-20T15:14:01.875Z,9.59
2023-01-20T15:16:30.625Z,9.51
2023-01-20T15:19:17.010Z,9.46
2023-01-20T15:21:44.610Z,9.48
2023-01-20T15:24:20.916Z,9.59
2023-01-20T15:26:50.090Z,9.61
2023-01-20T15:29:26.726Z,9.53
2023-01-20T15:31:55.276Z,9.60
2023-01-20T15:34:23.354Z,9.46
2023-01-20T15:36:51.505Z,9.42
2023-01-20T15:39:20.882Z,9.42
2023-01-20T15:41:48.968Z,9.43
2023-01-20T15:44:16.342Z,9.40
2023-01-20T15:46:43.484Z,9.48
2023-01-20T15:49:15.358Z,9.38
2023-01-20T15:51:45.449Z,9.28
2023-01-20T15:54:13.950Z,9.32
2023-01-20T15:56:42.115Z,9.29
2023-01-20T15:59:13.328Z,9.36
2023-01-20T16:01:40.650Z,9.29
2023-01-20T16:04:07.923Z,9.05
2023-01-20T16:06:35.371Z,8.98
2023-01-20T16:09:03.726Z,8.98
2023-01-20T16:11:30.927Z,9.03
2023-01-20T16:13:58.235Z,9.11
2023-01-20T16:16:28.737Z,9.02
2023-01-20T16:18:56.785Z,9.11
2023-01-20T16:21:24.125Z,9.02
2023-01-20T16:23:51.281Z,8.85
2023-01-20T16:26:27.227Z,8.87
2023-01-20T16:28:56.223Z,8.70
2023-01-20T16:31:24.735Z,8.81
2023-01-20T16:33:52.892Z,8.83
2023-01-20T16:36:21.055Z,8.77
2023-01-20T16:38:48.606Z,8.58
2023-01-20T16:41:17.322Z,8.54
2023-01-20T16:43:44.596Z,8.51
2023-01-20T16:46:14.127Z,8.52
2023-01-20T16:48:41.417Z,8.51
2023-01-20T16:51:12.724Z,8.43
2023-01-20T16:53:40.166Z,8.40
2023-01-20T16:56:15.044Z,8.67
2023-01-20T16:58:43.172Z,8.63
2023-01-20T17:01:13.389Z,8.54
2023-01-20T17:03:41.616Z,8.49
2023-01-20T17:06:13.244Z,8.38
2023-01-20T17:08:45.329Z,8.51
2023-01-20T17:11:18.132Z,8.46
2023-01-20T17:13:45.429Z,8.42
2023-01-20T17:16:12.616Z,8.45
2023-01-20T17:18:44.951Z,8.43
2023-01-20T17:21:12.904Z,8.31
2023-01-20T17:23:40.734Z,8.35
2023-01-20T17:26:08.528Z,8.29
2023-01-20T17:28:35.885Z,8.17
2023-01-20T17:31:04.317Z,8.24
2023-01-20T17:33:31.789Z,8.15
2023-01-20T17:36:00.903Z,8.20
2023-01-20T17:38:28.911Z,8.35
2023-01-20T17:41:04.093Z,8.29
2023-01-20T17:43:33.052Z,8.25
2023-01-20T17:46:00.740Z,8.22
2023-01-20T17:48:28.180Z,8.27
2023-01-20T17:50:59.575Z,8.27
2023-01-20T17:53:27.038Z,8.18
2023-01-20T17:56:06.658Z,8.14
2023-01-20T17:58:38.466Z,8.14
2023-01-20T18:01:13.677Z,8.13
2023-01-20T18:03:42.976Z,8.19
2023-01-20T18:06:11.634Z,8.20
2023-01-20T18:08:38.878Z,8.17
2023-01-20T18:11:15.357Z,8.08
2023-01-20T18:13:42.722Z,8.08
2023-01-20T18:16:11.941Z,8.20
2023-01-20T18:18:40.058Z,8.15
2023-01-20T18:21:13.942Z,8.34
2023-01-20T18:23:41.347Z,8.35
2023-01-20T18:26:09.837Z,8.25
2023-01-20T18:28:37.093Z,8.24
2023-01-20T18:31:10.235Z,8.40
2023-01-20T18:33:40.529Z,8.28
2023-01-20T18:36:09.173Z,8.45
2023-01-20T18:38:36.898Z,8.33
2023-01-20T18:41:04.145Z,8.49
2023-01-20T18:43:32.567Z,8.70
2023-01-20T18:45:59.800Z,8.60
2023-01-20T18:48:27.102Z,8.32
2023-01-20T18:51:00.032Z,8.44
2023-01-20T18:53:30.558Z,8.49
2023-01-20T18:56:01.934Z,8.49
2023-01-20T18:58:29.253Z,8.38
2023-01-20T19:01:08.206Z,8.50
2023-01-20T19:03:35.527Z,8.45
2023-01-20T19:06:08.461Z,8.37
2023-01-20T19:08:35.545Z,8.29
2023-01-20T19:11:04.645Z,8.55
2023-01-20T19:13:32.286Z,8.39
2023-01-20T19:15:59.591Z,8.49
2023-01-20T19:18:26.885Z,8.44
2023-01-20T19:20:54.178Z,8.56
2023-01-20T19:23:21.760Z,8.41
2023-01-20T19:25:49.715Z,8.40
2023-01-20T19:28:18.371Z,8.47
2023-01-20T19:30:45.668Z,8.49
2023-01-20T19:33:13.067Z,8.61
2023-01-20T19:35:42.081Z,8.54
2023-01-20T19:38:09.501Z,8.48
2023-01-20T19:40:36.666Z,8.59
2023-01-20T19:43:03.995Z,8.50
2023-01-20T19:45:44.903Z,8.58
2023-01-20T19:48:12.969Z,8.42
2023-01-20T19:50:40.317Z,8.39
2023-01-20T19:53:07.569Z,8.54
2023-01-20T19:55:34.887Z,8.40
2023-01-20T19:58:05.158Z,8.20
2023-01-20T20:00:32.439Z,8.30
2023-01-20T20:03:03.302Z,8.40
2023-01-20T20:05:33.099Z,8.44
2023-01-20T20:08:00.931Z,8.43
2023-01-20T20:10:28.225Z,8.49
2023-01-20T20:12:57.815Z,8.54
2023-01-20T20:15:25.062Z,8.54
2023-01-20T20:17:55.063Z,8.53
2023-01-20T20:20:22.351Z,8.48
2023-01-20T20:22:49.594Z,8.56
2023-01-20T20:25:16.960Z,8.42
2023-01-20T20:27:44.248Z,8.29
2023-01-20T20:30:11.908Z,8.29
2023-01-20T20:32:39.207Z,8.21
2023-01-20T20:35:06.927Z,8.16
2023-01-20T20:37:34.216Z,8.17
2023-01-20T20:40:01.531Z,8.18
2023-01-20T20:42:28.897Z,8.10
2023-01-20T20:44:56.646Z,8.07
2023-01-20T20:47:26.304Z,8.04
2023-01-20T20:49:54.508Z,8.08
2023-01-20T20:52:22.040Z,8.10
2023-01-20T20:54:49.835Z,7.95
2023-01-20T20:57:16.995Z,7.97
2023-01-20T20:59:58.232Z,7.98
2023-01-20T21:02:26.124Z,8.00
2023-01-20T21:04:53.545Z,7.99
2023-01-20T21:07:20.851Z,7.94
2023-01-20T21:09:48.202Z,7.86
2023-01-20T21:12:15.471Z,7.87
2023-01-20T21:14:43.524Z,7.85
2023-01-20T21:17:10.782Z,7.77
2023-01-20T21:19:37.946Z,7.78
2023-01-20T21:22:06.273Z,7.80
2023-01-20T21:24:33.543Z,7.71
2023-01-20T21:27:00.850Z,7.79
2023-01-20T21:29:28.163Z,7.82
2023-01-20T21:31:55.513Z,7.77
2023-01-20T21:34:22.835Z,7.73
2023-01-20T21:36:50.044Z,7.80
2023-01-20T21:39:17.730Z,7.79
2023-01-20T21:41:45.090Z,7.76
2023-01-20T21:44:33.104Z,7.85
2023-01-20T21:47:04.542Z,7.82
2023-01-20T21:49:50.466Z,7.75
2023-01-20T21:52:38.409Z,7.64
2023-01-20T21:55:06.315Z,7.67
2023-01-20T21:57:33.579Z,7.69
2023-01-20T22:00:01.135Z,7.74
2023-01-20T22:02:39.554Z,7.78
2023-01-20T22:05:07.326Z,8.00
2023-01-20T22:07:35.513Z,7.93
2023-01-20T22:10:03.164Z,8.09
2023-01-20T22:12:34.031Z,8.10
2023-01-20T22:15:03.245Z,8.19
2023-01-20T22:17:30.754Z,8.24
2023-01-20T22:19:58.032Z,8.19
2023-01-20T22:22:25.289Z,8.16
2023-01-20T22:24:53.418Z,8.04
2023-01-20T22:27:20.922Z,8.02
2023-01-20T22:29:48.234Z,7.95
2023-01-20T22:32:15.522Z,7.79
2023-01-20T22:34:42.759Z,7.72
2023-01-20T22:37:09.978Z,7.78
2023-01-20T22:39:37.129Z,7.57
2023-01-20T22:42:04.563Z,7.45
2023-01-20T22:44:31.880Z,7.43
2023-01-20T22:46:59.109Z,7.35
2023-01-20T22:49:26.482Z,7.38
2023-01-20T22:51:55.175Z,7.38
2023-01-20T22:54:22.465Z,7.48
2023-01-20T22:56:49.623Z,7.54
2023-01-20T22:59:16.886Z,7.62
2023-01-20T23:01:44.003Z,7.66
2023-01-20T23:04:11.607Z,7.55
2023-01-20T23:06:39.550Z,7.53
2023-01-20T23:09:08.932Z,7.53
2023-01-20T23:11:38.447Z,7.44
2023-01-20T23:14:06.587Z,7.43
2023-01-20T23:16:33.956Z,7.28
2023-01-20T23:19:01.280Z,7.33
2023-01-20T23:21:28.565Z,7.48
2023-01-20T23:23:56.062Z,7.44
2023-01-20T23:26:25.039Z,7.39
2023-01-20T23:28:53.889Z,7.48
2023-01-20T23:31:21.896Z,7.46
2023-01-20T23:33:49.295Z,7.36
2023-01-20T23:36:21.449Z,7.63
2023-01-20T23:38:48.807Z,7.60
2023-01-20T23:41:16.527Z,7.53
2023-01-20T23:43:44.902Z,7.39
2023-01-20T23:46:12.196Z,7.29
2023-01-20T23:48:39.515Z,7.28
2023-01-20T23:51:07.235Z,7.38
2023-01-20T23:53:37.844Z,7.35
2023-01-20T23:56:07.071Z,7.23
2023-01-20T23:58:34.255Z,7.32
